Napavine, WA

11:14 PM PST on December 09, 2016 (GMT -0800)
Pascoe | | Change Station

Elev 500 ft 46.56 °N, 122.82 °W | Updated 10 minutes ago

Rain
Rain
34.1 °F
Feels Like 34 °F
N
2.0
Wind Variable Wind from SSE
Gusts 7.0 mph

Today
High -- | Low -- °F
--% Chance of Precip.
Yesterday
High -- | Low -- °F
Precip. -- in
Pressure 29.86 in
Visibility 7.0 miles
Clouds Few 1200 ft
Overcast 2700 ft
Windchill 34 °F
Dew Point 33 °F
Humidity 97%
Rainfall 0.68 in
Snow Depth Not available.
7:44 AM 4:24 PM
Waxing Gibbous, 81% visible
METAR KCLS 100635Z AUTO 19004KT 7SM -RA FEW012 OVC027 04/03 A2986 RMK AO2
Pressure 29.86 in
Visibility 7.0 miles
Clouds Few 1200 ft
Overcast 2700 ft
Windchill 34 °F
Dew Point 33 °F
Humidity 97%
Rainfall 0.68 in
Snow Depth Not available.
7:44 AM 4:24 PM
Waxing Gibbous, 81% visible
METAR KCLS 100635Z AUTO 19004KT 7SM -RA FEW012 OVC027 04/03 A2986 RMK AO2

10-Day Weather Forecast

Almanac

Astronomy

Dec. 09, 2016 Rise Set
Actual Time
Civil Twilight
Nautical Twilight
Astronomical Twilight
Moon
Length of Visible Light
Length of Day
Tomorrow will be .
, % of the Moon is Illuminated

Today's Extremes

State Highs State Lows

Community

WunderPhotos

Upload Photos

1,956,527 photos uploaded!

WunderBlog® & News

Nearby

Air Quality

  Air Quality AQ Index Pollutant
Not available.

Snow Depth

Station Depth Elevation

Earthquake Activity

City Distance Mag. Time & Date
Minimum magnitude displayed is 2.5.

Coastal Water Temperatures

Place Temperature

Stations

Nearby Weather Stations

Station Location Temp. Windchill Dew Point Humidity Wind Precip. Elev Updated Type
                   

Watches & Warnings

There are currently no watches in effect.